createdAt,value
2023-01-21T00:01:23.391Z,30.88
2023-01-21T00:03:49.789Z,30.79
2023-01-21T00:06:16.316Z,30.81
2023-01-21T00:08:42.717Z,30.76
2023-01-21T00:11:14.235Z,30.92
2023-01-21T00:13:40.602Z,30.79
2023-01-21T00:16:07.115Z,30.82
2023-01-21T00:18:33.603Z,30.69
2023-01-21T00:20:59.930Z,30.78
2023-01-21T00:23:26.237Z,30.60
2023-01-21T00:26:01.787Z,30.74
2023-01-21T00:28:28.880Z,30.67
2023-01-21T00:31:01.767Z,30.58
2023-01-21T00:33:28.195Z,30.75
2023-01-21T00:36:00.864Z,30.80
2023-01-21T00:38:27.175Z,30.82
2023-01-21T00:40:53.493Z,30.76
2023-01-21T00:43:19.816Z,30.64
2023-01-21T00:45:46.136Z,30.74
2023-01-21T00:48:12.484Z,30.54
2023-01-21T00:50:39.064Z,30.44
2023-01-21T00:53:05.386Z,30.59
2023-01-21T00:55:31.701Z,30.45
2023-01-21T00:57:58.158Z,30.64
2023-01-21T01:00:24.538Z,30.57
2023-01-21T01:02:50.873Z,30.64
2023-01-21T01:05:17.355Z,30.39
2023-01-21T01:07:46.002Z,30.50
2023-01-21T01:10:12.356Z,30.57
2023-01-21T01:12:38.713Z,30.45
2023-01-21T01:15:05.282Z,30.55
2023-01-21T01:17:31.631Z,30.57
2023-01-21T01:19:58.124Z,30.57
2023-01-21T01:22:24.437Z,30.52
2023-01-21T01:24:50.763Z,30.50
2023-01-21T01:27:17.084Z,30.55
2023-01-21T01:29:43.387Z,30.51
2023-01-21T01:32:09.715Z,30.46
2023-01-21T01:34:36.901Z,30.60
2023-01-21T01:37:03.519Z,30.45
2023-01-21T01:39:29.831Z,30.66
2023-01-21T01:41:56.172Z,30.44
2023-01-21T01:44:41.132Z,30.72
2023-01-21T01:47:07.449Z,30.60
2023-01-21T01:49:33.757Z,30.87
2023-01-21T01:52:01.226Z,30.80
2023-01-21T01:54:28.598Z,30.58
2023-01-21T01:56:55.421Z,30.65
2023-01-21T01:59:21.747Z,30.63
2023-01-21T02:01:48.133Z,30.35
2023-01-21T02:04:15.845Z,30.17
2023-01-21T02:06:42.155Z,30.28
2023-01-21T02:09:08.572Z,30.21
2023-01-21T02:11:35.060Z,30.30
2023-01-21T02:14:01.365Z,30.28
2023-01-21T02:16:42.899Z,30.32
2023-01-21T02:19:19.074Z,30.45
2023-01-21T02:21:51.523Z,30.24
2023-01-21T02:24:36.255Z,30.56
2023-01-21T02:30:36.038Z,30.21
2023-01-21T02:33:05.486Z,30.27
2023-01-21T02:35:43.116Z,30.36
2023-01-21T02:38:12.146Z,30.41
2023-01-21T02:40:41.021Z,30.34
2023-01-21T02:43:14.332Z,30.46
2023-01-21T02:45:43.520Z,30.41
2023-01-21T02:48:14.159Z,30.42
2023-01-21T02:50:47.800Z,30.35
2023-01-21T02:53:27.489Z,30.48
2023-01-21T02:55:53.863Z,30.41
2023-01-21T02:58:21.991Z,30.42
2023-01-21T03:01:03.987Z,30.28
2023-01-21T03:03:34.271Z,30.20
2023-01-21T03:06:09.723Z,30.25
2023-01-21T03:08:46.183Z,30.19
2023-01-21T03:11:16.059Z,30.25
2023-01-21T03:14:02.238Z,30.31
2023-01-21T03:16:49.548Z,30.33
2023-01-21T03:19:15.840Z,30.43
2023-01-21T03:21:42.121Z,30.43
2023-01-21T03:24:08.416Z,30.57
2023-01-21T03:26:38.892Z,30.46
2023-01-21T03:29:13.395Z,30.55
2023-01-21T03:31:40.018Z,30.45
2023-01-21T03:34:07.315Z,30.53
2023-01-21T03:36:50.820Z,30.57
2023-01-21T03:39:23.117Z,30.43
2023-01-21T03:41:49.417Z,30.44
2023-01-21T03:44:15.747Z,30.46
2023-01-21T03:47:02.138Z,30.50
2023-01-21T03:49:30.086Z,30.37
2023-01-21T03:51:56.922Z,30.45
2023-01-21T03:54:23.228Z,30.49
2023-01-21T03:56:49.767Z,30.39
2023-01-21T03:59:16.104Z,30.50
2023-01-21T04:01:42.415Z,30.35
2023-01-21T04:04:08.979Z,30.53
2023-01-21T04:06:36.699Z,30.38
2023-01-21T04:09:03.979Z,30.49
2023-01-21T04:11:30.288Z,30.43
2023-01-21T04:13:56.609Z,30.62
2023-01-21T04:16:22.979Z,30.47
2023-01-21T04:18:49.350Z,30.47
2023-01-21T04:21:15.658Z,30.57
2023-01-21T04:23:41.981Z,30.37
2023-01-21T04:26:08.307Z,30.67
2023-01-21T04:28:34.641Z,30.40
2023-01-21T04:31:00.969Z,30.54
2023-01-21T04:33:27.321Z,30.77
2023-01-21T04:35:59.724Z,30.73
2023-01-21T04:38:26.422Z,30.62
2023-01-21T04:40:52.728Z,30.56
2023-01-21T04:43:19.047Z,30.68
2023-01-21T04:45:45.423Z,30.69
2023-01-21T04:48:11.762Z,30.79
2023-01-21T04:50:38.089Z,30.94
2023-01-21T04:53:04.404Z,30.90
2023-01-21T04:55:30.712Z,30.81
2023-01-21T04:57:57.041Z,30.96
2023-01-21T05:00:23.413Z,30.94
2023-01-21T05:02:49.753Z,30.89
2023-01-21T05:05:16.052Z,30.77
2023-01-21T05:07:42.355Z,30.43
2023-01-21T05:10:09.800Z,30.45
2023-01-21T05:12:36.112Z,30.52
2023-01-21T05:15:02.449Z,30.43
2023-01-21T05:17:28.776Z,30.38
2023-01-21T05:19:55.108Z,30.41
2023-01-21T05:22:21.666Z,30.24
2023-01-21T05:24:47.991Z,30.44
2023-01-21T05:27:14.300Z,30.43
2023-01-21T05:29:40.634Z,30.35
2023-01-21T05:32:06.968Z,30.47
2023-01-21T05:34:33.281Z,30.37
2023-01-21T05:36:59.583Z,30.37
2023-01-21T05:39:25.900Z,30.40
2023-01-21T05:41:52.210Z,30.32
2023-01-21T05:44:18.528Z,30.51
2023-01-21T05:46:44.832Z,30.38
2023-01-21T05:49:11.253Z,30.51
2023-01-21T05:51:37.568Z,30.35
2023-01-21T05:54:03.913Z,30.70
2023-01-21T05:56:30.225Z,30.47
2023-01-21T05:58:56.538Z,30.63
2023-01-21T06:01:22.832Z,30.67
2023-01-21T06:03:49.223Z,30.71
2023-01-21T06:06:15.561Z,30.51
2023-01-21T06:08:41.938Z,30.47
2023-01-21T06:11:08.242Z,30.49
2023-01-21T06:13:34.611Z,30.50
2023-01-21T06:16:00.969Z,30.32
2023-01-21T06:18:27.313Z,30.51
2023-01-21T06:20:53.619Z,30.41
2023-01-21T06:23:19.984Z,30.22
2023-01-21T06:25:46.291Z,30.20
2023-01-21T06:28:12.626Z,30.21
2023-01-21T06:30:38.942Z,30.31
2023-01-21T06:33:05.276Z,30.30
2023-01-21T06:35:31.613Z,30.20
2023-01-21T06:37:57.937Z,30.19
2023-01-21T06:40:24.278Z,30.08
2023-01-21T06:42:50.588Z,30.13
2023-01-21T06:45:17.169Z,30.22
2023-01-21T06:47:43.722Z,30.25
2023-01-21T06:50:13.729Z,30.16
2023-01-21T06:52:40.310Z,30.09
2023-01-21T06:55:06.723Z,30.20
2023-01-21T06:57:33.029Z,30.15
2023-01-21T06:59:59.364Z,30.24
2023-01-21T07:02:26.042Z,30.29
2023-01-21T07:04:52.428Z,30.28
2023-01-21T07:07:18.758Z,30.26
2023-01-21T07:09:45.120Z,30.33
2023-01-21T07:12:11.435Z,30.34
2023-01-21T07:14:37.790Z,30.26
2023-01-21T07:17:04.108Z,30.25
2023-01-21T07:19:30.444Z,30.19
2023-01-21T07:21:56.752Z,30.43
2023-01-21T07:24:23.111Z,30.22
2023-01-21T07:26:49.458Z,30.40
2023-01-21T07:29:15.776Z,30.34
2023-01-21T07:31:42.139Z,30.25
2023-01-21T07:34:08.490Z,30.24
2023-01-21T07:36:34.803Z,30.16
2023-01-21T07:39:01.128Z,30.10
2023-01-21T07:41:27.446Z,30.14
2023-01-21T07:43:53.829Z,30.07
2023-01-21T07:46:20.321Z,29.95
2023-01-21T07:48:50.991Z,29.79
2023-01-21T07:51:18.060Z,29.84
2023-01-21T07:53:44.403Z,29.85
2023-01-21T07:56:11.008Z,30.14
2023-01-21T07:58:37.696Z,30.21
2023-01-21T08:01:04.579Z,30.22
2023-01-21T08:03:30.913Z,30.29
2023-01-21T08:05:57.232Z,30.33
2023-01-21T08:08:23.539Z,30.48
2023-01-21T08:10:53.391Z,30.57
2023-01-21T08:13:19.704Z,30.32
2023-01-21T08:15:49.265Z,30.80
2023-01-21T08:18:15.567Z,30.39
2023-01-21T08:20:41.960Z,30.56
2023-01-21T08:23:08.292Z,30.28
2023-01-21T08:25:34.648Z,30.29
2023-01-21T08:28:00.966Z,30.23
2023-01-21T08:30:27.488Z,30.34
2023-01-21T08:32:53.800Z,30.46
2023-01-21T08:35:20.129Z,30.64
2023-01-21T08:37:46.655Z,30.22
2023-01-21T08:40:13.047Z,30.34
2023-01-21T08:42:39.387Z,30.27
2023-01-21T08:45:05.974Z,30.47
2023-01-21T08:47:32.287Z,30.22
2023-01-21T08:49:58.670Z,30.16
2023-01-21T08:52:25.084Z,30.65
2023-01-21T08:54:51.409Z,30.44
2023-01-21T08:57:17.721Z,30.60
2023-01-21T08:59:44.049Z,30.36
2023-01-21T09:02:10.761Z,30.34
2023-01-21T09:04:37.118Z,30.44
2023-01-21T09:07:03.421Z,30.53
2023-01-21T09:09:29.830Z,30.38
2023-01-21T09:11:56.375Z,30.51
2023-01-21T09:14:22.726Z,30.27
2023-01-21T09:16:49.501Z,30.64
2023-01-21T09:19:15.989Z,30.61
2023-01-21T09:21:42.303Z,30.76
2023-01-21T09:24:08.650Z,30.70
2023-01-21T09:26:34.984Z,30.64
2023-01-21T09:29:01.298Z,30.56
2023-01-21T09:31:28.062Z,30.49
2023-01-21T09:34:01.110Z,30.41
2023-01-21T09:36:28.307Z,30.41
2023-01-21T09:38:54.619Z,30.42
2023-01-21T09:41:39.921Z,30.25
2023-01-21T09:44:27.427Z,30.31
2023-01-21T09:47:04.129Z,30.19
2023-01-21T09:49:30.383Z,30.33
2023-01-21T09:51:59.060Z,30.36
2023-01-21T09:54:26.592Z,30.25
2023-01-21T09:56:59.759Z,30.11
2023-01-21T09:59:37.322Z,30.15
2023-01-21T10:02:03.698Z,30.20
2023-01-21T10:04:34.296Z,29.98
2023-01-21T10:07:03.285Z,30.11
2023-01-21T10:09:41.634Z,30.31
2023-01-21T10:12:20.521Z,30.13
2023-01-21T10:15:05.801Z,30.26
2023-01-21T10:17:51.908Z,30.17
2023-01-21T10:20:27.289Z,30.17
2023-01-21T10:22:57.809Z,30.29
2023-01-21T10:25:31.396Z,30.35
2023-01-21T10:28:13.624Z,30.44
2023-01-21T10:30:40.410Z,30.35
2023-01-21T10:33:07.096Z,30.28
2023-01-21T10:35:52.171Z,30.29
2023-01-21T10:38:37.003Z,30.33
2023-01-21T10:41:18.523Z,30.20
2023-01-21T10:43:56.073Z,30.40
2023-01-21T10:46:31.531Z,30.17
2023-01-21T10:49:00.801Z,30.06
2023-01-21T10:51:29.160Z,30.07
2023-01-21T10:54:00.473Z,30.11
2023-01-21T10:56:29.106Z,30.03
2023-01-21T10:58:56.463Z,29.94
2023-01-21T11:01:24.987Z,30.24
2023-01-21T11:03:52.747Z,30.13
2023-01-21T11:06:19.212Z,30.22
2023-01-21T11:08:46.745Z,30.09
2023-01-21T11:11:13.107Z,30.05
2023-01-21T11:13:41.213Z,30.11
2023-01-21T11:16:07.664Z,29.94
2023-01-21T11:18:37.835Z,29.81
2023-01-21T11:21:10.143Z,29.92
2023-01-21T11:23:39.112Z,29.93
2023-01-21T11:26:25.700Z,30.03
2023-01-21T11:29:10.885Z,30.18
2023-01-21T11:31:37.320Z,30.22
2023-01-21T11:34:13.422Z,30.16
2023-01-21T11:36:53.172Z,30.19
2023-01-21T11:39:20.022Z,30.10
2023-01-21T11:41:53.089Z,29.96
2023-01-21T11:44:19.976Z,29.99
2023-01-21T11:46:46.319Z,29.94
2023-01-21T11:49:15.427Z,29.95
2023-01-21T11:51:42.009Z,29.84
2023-01-21T11:54:14.184Z,30.10
2023-01-21T11:56:43.164Z,29.96
2023-01-21T11:59:23.575Z,30.10
2023-01-21T12:01:53.350Z,30.22
2023-01-21T12:04:19.664Z,30.10
2023-01-21T12:06:46.474Z,30.23
2023-01-21T12:09:14.055Z,30.22
2023-01-21T12:11:40.366Z,29.99
2023-01-21T12:14:25.046Z,29.94
2023-01-21T12:16:51.286Z,29.65
2023-01-21T12:19:40.094Z,29.82
2023-01-21T12:22:27.618Z,29.78
2023-01-21T12:25:12.923Z,29.72
2023-01-21T12:27:42.194Z,29.96
2023-01-21T12:30:26.550Z,30.13
2023-01-21T12:32:56.651Z,30.21
2023-01-21T12:35:41.947Z,30.26
2023-01-21T12:38:11.460Z,30.01
2023-01-21T12:40:45.874Z,30.38
2023-01-21T12:43:16.755Z,30.31
2023-01-21T12:45:51.222Z,29.59
2023-01-21T12:48:34.265Z,28.97
2023-01-21T12:51:19.567Z,29.34
2023-01-21T12:54:04.514Z,29.52
2023-01-21T12:56:49.782Z,29.10
2023-01-21T12:59:31.145Z,29.04
2023-01-21T13:01:59.553Z,29.01
2023-01-21T13:04:44.633Z,29.14
2023-01-21T13:07:29.847Z,28.97
2023-01-21T13:09:59.101Z,28.90
2023-01-21T13:12:25.872Z,28.78
2023-01-21T13:14:57.097Z,28.56
2023-01-21T13:17:28.201Z,28.45
2023-01-21T13:19:54.520Z,28.44
2023-01-21T13:22:24.545Z,28.39
2023-01-21T13:25:02.139Z,28.30
2023-01-21T13:27:31.508Z,28.35
2023-01-21T13:30:09.773Z,28.53
2023-01-21T13:32:51.639Z,28.21
2023-01-21T13:35:36.872Z,28.68
2023-01-21T13:38:14.053Z,28.39
2023-01-21T13:40:49.704Z,28.82
2023-01-21T13:43:35.006Z,28.50
2023-01-21T13:46:04.736Z,28.75
2023-01-21T13:48:38.730Z,28.64
2023-01-21T13:51:24.751Z,28.63
2023-01-21T13:54:03.608Z,28.74
2023-01-21T13:56:49.803Z,28.80
2023-01-21T13:59:17.713Z,28.95
2023-01-21T14:01:45.721Z,29.16
2023-01-21T14:04:13.664Z,29.12
2023-01-21T14:06:41.899Z,29.17
2023-01-21T14:09:09.946Z,28.96
2023-01-21T14:11:38.122Z,29.18
2023-01-21T14:14:04.385Z,29.15
2023-01-21T14:16:50.019Z,29.30
2023-01-21T14:19:32.830Z,29.28
2023-01-21T14:22:11.307Z,29.45
2023-01-21T14:24:51.599Z,29.38
2023-01-21T14:27:32.446Z,29.30
2023-01-21T14:30:04.881Z,29.27
2023-01-21T14:32:34.034Z,29.65
2023-01-21T14:35:07.317Z,29.43
2023-01-21T14:37:38.671Z,29.73
2023-01-21T14:40:08.094Z,29.56
2023-01-21T14:42:40.231Z,29.68
2023-01-21T14:45:07.942Z,29.69
2023-01-21T14:47:44.636Z,29.73
2023-01-21T14:50:10.959Z,29.83
2023-01-21T14:52:41.625Z,29.67
2023-01-21T14:55:24.255Z,29.63
2023-01-21T14:57:50.912Z,29.50
2023-01-21T15:00:24.171Z,29.61
2023-01-21T15:02:54.515Z,29.91
2023-01-21T15:05:20.769Z,29.80
2023-01-21T15:07:47.256Z,29.72
2023-01-21T15:10:25.976Z,29.88
2023-01-21T15:12:53.612Z,29.80
2023-01-21T15:15:28.377Z,29.91
2023-01-21T15:17:54.858Z,29.72
2023-01-21T15:20:39.913Z,29.66
2023-01-21T15:23:25.196Z,29.74
2023-01-21T15:26:12.917Z,29.60
2023-01-21T15:28:45.324Z,29.67
2023-01-21T15:31:20.721Z,29.74
2023-01-21T15:34:00.944Z,29.54
2023-01-21T15:36:27.960Z,29.78
2023-01-21T15:38:54.826Z,29.55
2023-01-21T15:41:27.259Z,29.49
2023-01-21T15:44:04.215Z,29.53
2023-01-21T15:46:36.693Z,29.46
2023-01-21T15:49:06.069Z,29.68
2023-01-21T15:51:41.517Z,29.52
2023-01-21T15:54:26.199Z,29.63
2023-01-21T15:57:07.725Z,29.49
2023-01-21T15:59:46.178Z,29.40
2023-01-21T16:02:18.317Z,29.41
2023-01-21T16:04:47.245Z,29.30
2023-01-21T16:07:19.394Z,29.26
2023-01-21T16:09:55.633Z,29.25
2023-01-21T16:12:25.028Z,28.97
2023-01-21T16:14:55.864Z,29.32
2023-01-21T16:17:34.156Z,29.26
2023-01-21T16:20:00.480Z,29.31
2023-01-21T16:22:28.084Z,29.12
2023-01-21T16:24:58.455Z,29.28
2023-01-21T16:27:25.631Z,29.26
2023-01-21T16:29:55.921Z,29.32
2023-01-21T16:32:22.311Z,29.40
2023-01-21T16:34:48.708Z,29.29
2023-01-21T16:37:15.722Z,29.25
2023-01-21T16:39:42.047Z,29.42
2023-01-21T16:42:14.092Z,29.49
2023-01-21T16:44:40.410Z,29.42
2023-01-21T16:47:08.849Z,29.25
2023-01-21T16:49:35.153Z,29.08
2023-01-21T16:52:01.824Z,29.08
2023-01-21T16:54:31.865Z,28.82
2023-01-21T16:57:01.809Z,28.87
2023-01-21T16:59:41.133Z,28.85
2023-01-21T17:02:33.649Z,28.85
2023-01-21T17:05:04.953Z,28.78
2023-01-21T17:07:32.259Z,28.75
2023-01-21T17:10:05.823Z,28.71
2023-01-21T17:12:34.028Z,28.62
2023-01-21T17:15:02.795Z,28.96
2023-01-21T17:17:30.113Z,28.89
2023-01-21T17:19:56.628Z,29.10
2023-01-21T17:22:23.106Z,30.75
2023-01-21T17:24:54.882Z,31.75
2023-01-21T17:27:23.194Z,32.06
2023-01-21T17:29:49.769Z,32.16
2023-01-21T17:32:21.886Z,32.29
2023-01-21T17:35:02.252Z,31.93
2023-01-21T17:37:40.733Z,31.54
2023-01-21T17:40:14.132Z,31.21
2023-01-21T17:42:40.644Z,31.13
2023-01-21T17:45:07.157Z,31.12
2023-01-21T17:47:34.655Z,31.51
2023-01-21T17:50:08.726Z,31.46
2023-01-21T17:52:35.049Z,31.48
2023-01-21T17:55:16.756Z,31.32
2023-01-21T17:57:43.321Z,31.27
2023-01-21T18:00:25.020Z,30.96
2023-01-21T18:02:51.354Z,30.39
2023-01-21T18:05:18.377Z,29.87
2023-01-21T18:07:44.867Z,30.05
2023-01-21T18:10:15.243Z,30.40
2023-01-21T18:12:41.566Z,30.71
2023-01-21T18:15:08.061Z,31.07
2023-01-21T18:17:34.435Z,30.89
2023-01-21T18:20:00.755Z,31.45
2023-01-21T18:22:28.098Z,31.76
2023-01-21T18:24:54.454Z,31.92
2023-01-21T18:27:25.601Z,31.70
2023-01-21T18:29:52.219Z,31.82
2023-01-21T18:32:18.558Z,31.44
2023-01-21T18:34:46.734Z,31.56
2023-01-21T18:37:13.431Z,31.31
2023-01-21T18:39:39.995Z,31.24
2023-01-21T18:42:06.534Z,31.22
2023-01-21T18:44:32.899Z,31.30
2023-01-21T18:46:59.215Z,31.15
2023-01-21T18:49:27.615Z,31.17
2023-01-21T18:51:53.947Z,30.92
2023-01-21T18:54:20.263Z,30.67
2023-01-21T18:56:46.583Z,31.04
2023-01-21T18:59:13.691Z,31.01
2023-01-21T19:01:40.382Z,30.80
2023-01-21T19:04:09.549Z,30.68
2023-01-21T19:06:36.099Z,30.54
2023-01-21T19:09:02.473Z,30.75
2023-01-21T19:11:28.785Z,30.48
2023-01-21T19:13:55.190Z,30.57
2023-01-21T19:16:21.887Z,30.45
2023-01-21T19:18:48.367Z,30.87
2023-01-21T19:21:14.953Z,30.66
2023-01-21T19:23:41.337Z,30.68
2023-01-21T19:26:08.299Z,30.52
2023-01-21T19:28:34.642Z,30.44
2023-01-21T19:31:01.046Z,30.45
2023-01-21T19:33:27.421Z,30.49
2023-01-21T19:35:58.190Z,30.75
2023-01-21T19:38:26.242Z,30.64
2023-01-21T19:40:52.576Z,30.51
2023-01-21T19:43:21.549Z,30.49
2023-01-21T19:45:48.094Z,30.47
2023-01-21T19:48:15.319Z,30.18
2023-01-21T19:50:41.622Z,29.81
2023-01-21T19:53:09.487Z,29.71
2023-01-21T19:55:36.197Z,29.56
2023-01-21T19:58:04.020Z,29.94
2023-01-21T20:00:34.127Z,30.06
2023-01-21T20:03:00.552Z,30.10
2023-01-21T20:05:27.516Z,30.03
2023-01-21T20:07:53.826Z,30.23
2023-01-21T20:10:20.893Z,30.55
2023-01-21T20:12:47.360Z,30.57
2023-01-21T20:15:17.858Z,30.45
2023-01-21T20:17:49.051Z,30.72
2023-01-21T20:20:22.201Z,30.40
2023-01-21T20:22:48.563Z,30.73
2023-01-21T20:25:16.335Z,30.56
2023-01-21T20:27:43.239Z,30.66
2023-01-21T20:30:26.616Z,30.43
2023-01-21T20:32:53.086Z,30.73
2023-01-21T20:35:19.577Z,30.70
2023-01-21T20:37:48.725Z,30.81
2023-01-21T20:40:25.011Z,30.86
2023-01-21T20:42:51.519Z,31.10
2023-01-21T20:45:18.395Z,30.86
2023-01-21T20:47:50.121Z,31.04
2023-01-21T20:50:18.522Z,31.02
2023-01-21T20:52:44.885Z,30.95
2023-01-21T20:55:11.724Z,31.05
2023-01-21T20:57:38.042Z,31.12
2023-01-21T21:00:05.321Z,30.85
2023-01-21T21:02:31.656Z,31.08
2023-01-21T21:04:57.991Z,31.10
2023-01-21T21:07:26.488Z,30.97
2023-01-21T21:09:56.945Z,30.97
2023-01-21T21:12:23.813Z,31.01
2023-01-21T21:14:50.137Z,31.15
2023-01-21T21:17:16.698Z,31.03
2023-01-21T21:19:43.032Z,31.21
2023-01-21T21:22:09.441Z,31.10
2023-01-21T21:24:35.766Z,31.12
2023-01-21T21:27:03.484Z,31.29
2023-01-21T21:29:29.887Z,31.26
2023-01-21T21:31:57.046Z,31.38
2023-01-21T21:34:25.994Z,31.31
2023-01-21T21:36:52.316Z,31.17
2023-01-21T21:39:19.555Z,31.59
2023-01-21T21:42:04.609Z,31.32
2023-01-21T21:44:30.984Z,31.36
2023-01-21T21:47:16.258Z,31.44
2023-01-21T21:49:42.605Z,31.44
2023-01-21T21:52:08.944Z,31.46
2023-01-21T21:54:35.312Z,31.43
2023-01-21T21:57:01.821Z,31.60
2023-01-21T21:59:28.215Z,31.59
2023-01-21T22:01:54.626Z,31.45
2023-01-21T22:04:22.057Z,31.57
2023-01-21T22:06:48.381Z,31.59
2023-01-21T22:09:14.704Z,31.32
2023-01-21T22:11:41.021Z,31.40
2023-01-21T22:14:07.905Z,31.62
2023-01-21T22:16:34.336Z,31.74
2023-01-21T22:19:00.869Z,31.78
2023-01-21T22:21:28.161Z,31.58
2023-01-21T22:23:54.640Z,31.35
2023-01-21T22:26:21.666Z,31.55
2023-01-21T22:28:48.000Z,31.46
2023-01-21T22:31:18.891Z,31.09
2023-01-21T22:33:45.340Z,30.76
2023-01-21T22:36:12.831Z,30.91
2023-01-21T22:38:40.741Z,30.55
2023-01-21T22:41:07.298Z,30.70
2023-01-21T22:43:34.068Z,30.34
2023-01-21T22:46:00.429Z,30.27
2023-01-21T22:48:26.779Z,30.07
2023-01-21T22:50:56.527Z,30.18
2023-01-21T22:53:22.985Z,30.02
2023-01-21T22:56:02.308Z,29.99
2023-01-21T22:58:28.982Z,30.08
2023-01-21T23:00:55.549Z,29.77
2023-01-21T23:03:22.685Z,30.16
2023-01-21T23:05:49.346Z,29.91
2023-01-21T23:08:15.948Z,29.88
2023-01-21T23:10:42.672Z,29.67
2023-01-21T23:13:09.323Z,29.50
2023-01-21T23:15:35.660Z,29.85
2023-01-21T23:18:02.010Z,29.71
2023-01-21T23:20:28.860Z,29.72
2023-01-21T23:22:56.261Z,29.46
2023-01-21T23:25:22.561Z,29.38
2023-01-21T23:27:48.889Z,29.49
2023-01-21T23:30:15.648Z,29.13
2023-01-21T23:32:42.091Z,29.19
2023-01-21T23:35:08.579Z,29.56
2023-01-21T23:37:35.230Z,29.09
2023-01-21T23:40:01.576Z,29.34
2023-01-21T23:42:27.888Z,29.74
2023-01-21T23:44:54.203Z,29.56
2023-01-21T23:47:20.714Z,29.59
2023-01-21T23:49:47.047Z,29.37
2023-01-21T23:52:13.425Z,29.39
2023-01-21T23:54:39.900Z,29.56
2023-01-21T23:57:06.404Z,29.28
2023-01-21T23:59:32.775Z,29.35
